Time;durP1;ratioP1;P1;durP2;ratioP2;P2;SDS_P1;SDS_P2;PMS_P1;PMS_P2;Temp;Humidity;BMP_temperature;BMP_pressure;BME280_temperature;BME280_humidity;BME280_pressure;Samples;Min_cycle;Max_cycle;Signal;HPM_P1;HPM_P2
2022/03/26 00:00:22;;;;;;;49.22;23.50;;;;;;;;;;4985968;28;20042;-78
2022/03/26 00:02:48;;;;;;;49.72;22.90;;;;;;;;;;4970592;28;20054;-78
2022/03/26 00:05:15;;;;;;;46.58;21.63;;;;;;;;;;4987473;28;20042;-78
2022/03/26 00:07:42;;;;;;;46.67;22.02;;;;;;;;;;4986074;28;20034;-75
2022/03/26 00:10:08;;;;;;;51.13;23.45;;;;;;;;;;5014067;28;20059;-75
2022/03/26 00:12:34;;;;;;;48.60;22.45;;;;;;;;;;5009005;28;20042;-78
2022/03/26 00:15:00;;;;;;;44.83;21.63;;;;;;;;;;5008554;28;20033;-78
2022/03/26 00:17:26;;;;;;;41.58;20.65;;;;;;;;;;5008896;28;20056;-75
2022/03/26 00:19:53;;;;;;;43.22;19.48;;;;;;;;;;5009854;28;20037;-75
2022/03/26 00:22:19;;;;;;;50.83;22.92;;;;;;;;;;5012055;28;20041;-75
2022/03/26 00:24:45;;;;;;;47.40;21.85;;;;;;;;;;5012523;28;20037;-75
2022/03/26 00:27:11;;;;;;;54.08;23.33;;;;;;;;;;5012445;28;20065;-78
2022/03/26 00:29:38;;;;;;;46.25;20.88;;;;;;;;;;4996256;28;20128;-78
2022/03/26 00:32:05;;;;;;;55.60;24.17;;;;;;;;;;5012286;28;20102;-78
2022/03/26 00:34:32;;;;;;;47.65;22.75;;;;;;;;;;5011926;28;20052;-78
2022/03/26 00:36:58;;;;;;;54.38;23.38;;;;;;;;;;5012028;28;20052;-75
2022/03/26 00:39:24;;;;;;;50.63;22.73;;;;;;;;;;5011062;28;20041;-75
2022/03/26 00:41:50;;;;;;;53.55;22.77;;;;;;;;;;5029365;28;20090;-75
2022/03/26 00:44:16;;;;;;;54.30;23.73;;;;;;;;;;5029363;28;20375;-75
2022/03/26 00:46:45;;;;;;;57.65;25.42;;;;;;;;;;4995757;28;20034;-74
2022/03/26 00:49:11;;;;;;;49.67;22.92;;;;;;;;;;5029567;28;20041;-75
2022/03/26 00:51:37;;;;;;;49.08;22.90;;;;;;;;;;5011764;28;20132;-75
2022/03/26 00:54:03;;;;;;;51.22;24.00;;;;;;;;;;5011712;28;21073;-75
2022/03/26 00:56:30;;;;;;;59.83;26.33;;;;;;;;;;5011369;28;20056;-75
2022/03/26 00:58:56;;;;;;;55.55;25.35;;;;;;;;;;5011645;28;20045;-75
2022/03/26 01:01:22;;;;;;;54.50;25.27;;;;;;;;;;5011652;28;20471;-75
2022/03/26 01:03:48;;;;;;;59.92;26.65;;;;;;;;;;5012097;28;20554;-75
2022/03/26 01:06:14;;;;;;;58.30;26.60;;;;;;;;;;5011416;28;20399;-75
2022/03/26 01:08:41;;;;;;;53.75;25.27;;;;;;;;;;5011571;28;20123;-75
2022/03/26 01:11:07;;;;;;;54.70;25.27;;;;;;;;;;5029128;28;20157;-75
2022/03/26 01:13:34;;;;;;;58.38;25.83;;;;;;;;;;5011387;28;20379;-75
2022/03/26 01:16:02;;;;;;;53.75;25.67;;;;;;;;;;4995431;28;20049;-75
2022/03/26 01:18:28;;;;;;;52.40;24.48;;;;;;;;;;5028863;28;20053;-75
2022/03/26 01:20:54;;;;;;;60.33;26.77;;;;;;;;;;4994987;28;20054;-75
2022/03/26 01:23:20;;;;;;;57.13;26.55;;;;;;;;;;5010952;28;20038;-75
2022/03/26 01:25:47;;;;;;;63.20;28.90;;;;;;;;;;5011579;28;20033;-75
2022/03/26 01:28:13;;;;;;;59.28;27.92;;;;;;;;;;4994579;28;20041;-75
2022/03/26 01:30:40;;;;;;;58.53;27.65;;;;;;;;;;5010948;28;20090;-74
2022/03/26 01:33:06;;;;;;;73.55;31.52;;;;;;;;;;5011444;28;20041;-74
2022/03/26 01:35:32;;;;;;;70.55;30.30;;;;;;;;;;5010861;28;20065;-75
2022/03/26 01:38:04;;;;;;;73.38;32.92;;;;;;;;;;5010898;28;20126;-74
2022/03/26 01:40:31;;;;;;;72.40;31.75;;;;;;;;;;5010679;28;20045;-74
2022/03/26 01:42:57;;;;;;;66.03;28.80;;;;;;;;;;5011066;28;20029;-75
2022/03/26 01:45:24;;;;;;;71.63;29.13;;;;;;;;;;5010826;28;20041;-75
2022/03/26 01:47:50;;;;;;;66.00;30.17;;;;;;;;;;5028921;28;20108;-75
2022/03/26 01:50:16;;;;;;;71.00;30.70;;;;;;;;;;5011020;28;20037;-75
2022/03/26 01:52:42;;;;;;;68.10;29.92;;;;;;;;;;5021325;28;20055;-75
2022/03/26 01:55:09;;;;;;;70.63;30.35;;;;;;;;;;5010652;28;20045;-75
2022/03/26 01:57:35;;;;;;;64.95;28.48;;;;;;;;;;5028140;28;20041;-75
2022/03/26 02:00:02;;;;;;;69.70;30.83;;;;;;;;;;5028652;28;20036;-75
2022/03/26 02:02:28;;;;;;;72.07;30.10;;;;;;;;;;4978753;28;20045;-75
2022/03/26 02:04:54;;;;;;;64.40;29.42;;;;;;;;;;4992729;28;20048;-75
2022/03/26 02:07:20;;;;;;;59.55;27.98;;;;;;;;;;5010625;28;20490;-79
2022/03/26 02:09:48;;;;;;;60.67;27.67;;;;;;;;;;5010904;28;20100;-78
2022/03/26 02:12:27;;;;;;;58.92;24.98;;;;;;;;;;5010544;28;20459;-74
2022/03/26 02:14:54;;;;;;;62.15;28.15;;;;;;;;;;4979065;28;20053;-75
2022/03/26 02:17:20;;;;;;;65.68;28.85;;;;;;;;;;5010147;28;20105;-75
2022/03/26 02:19:53;;;;;;;63.80;27.33;;;;;;;;;;5010887;28;20046;-79
2022/03/26 02:22:20;;;;;;;63.95;28.20;;;;;;;;;;5011268;28;20041;-79
2022/03/26 02:24:46;;;;;;;64.93;27.88;;;;;;;;;;4994996;28;20037;-78
2022/03/26 02:27:13;;;;;;;66.72;29.77;;;;;;;;;;5011184;28;20043;-75
2022/03/26 02:29:39;;;;;;;59.90;26.95;;;;;;;;;;5010487;28;20129;-75
2022/03/26 02:32:05;;;;;;;69.95;30.40;;;;;;;;;;5028084;28;20038;-74
2022/03/26 02:34:31;;;;;;;75.55;32.00;;;;;;;;;;4993868;28;20042;-79
2022/03/26 02:36:58;;;;;;;82.93;34.63;;;;;;;;;;4994633;28;20518;-74
2022/03/26 02:39:25;;;;;;;76.07;33.78;;;;;;;;;;5009601;28;20114;-79
2022/03/26 02:41:51;;;;;;;73.63;31.10;;;;;;;;;;5027703;28;20520;-78
2022/03/26 02:44:17;;;;;;;82.57;34.40;;;;;;;;;;5009675;28;20077;-75
2022/03/26 02:46:45;;;;;;;79.13;33.22;;;;;;;;;;5010072;28;20102;-78
2022/03/26 02:49:12;;;;;;;73.93;30.95;;;;;;;;;;5010143;28;20045;-79
2022/03/26 02:51:39;;;;;;;72.38;30.17;;;;;;;;;;4993782;28;20448;-78
2022/03/26 02:54:05;;;;;;;72.60;30.70;;;;;;;;;;5009968;28;20086;-79
2022/03/26 02:56:31;;;;;;;77.50;33.40;;;;;;;;;;5027737;28;20046;-79
2022/03/26 02:58:58;;;;;;;75.20;32.10;;;;;;;;;;5009911;28;20041;-79
2022/03/26 03:01:24;;;;;;;66.38;28.73;;;;;;;;;;5023401;28;20045;-79
2022/03/26 03:03:50;;;;;;;83.60;34.33;;;;;;;;;;5019928;28;20084;-79
2022/03/26 03:06:17;;;;;;;75.13;31.45;;;;;;;;;;5026453;28;20124;-79
2022/03/26 03:08:43;;;;;;;81.70;34.08;;;;;;;;;;4993671;28;20083;-78
2022/03/26 03:11:09;;;;;;;80.68;33.83;;;;;;;;;;5010193;28;20548;-79
2022/03/26 03:13:38;;;;;;;88.53;35.85;;;;;;;;;;5009546;28;20042;-79
2022/03/26 03:16:04;;;;;;;81.47;33.78;;;;;;;;;;5009251;28;20041;-79
2022/03/26 03:18:30;;;;;;;79.22;33.63;;;;;;;;;;5009460;28;20091;-79
2022/03/26 03:20:56;;;;;;;93.97;38.38;;;;;;;;;;4993533;28;20041;-79
2022/03/26 03:23:22;;;;;;;93.45;38.35;;;;;;;;;;5009302;28;20062;-75
2022/03/26 03:25:48;;;;;;;86.40;35.58;;;;;;;;;;5027318;28;20029;-74
2022/03/26 03:28:15;;;;;;;98.38;38.70;;;;;;;;;;5009476;28;20556;-74
2022/03/26 03:30:41;;;;;;;94.18;36.97;;;;;;;;;;4992593;28;20136;-74
2022/03/26 03:33:07;;;;;;;91.70;37.35;;;;;;;;;;5006931;28;20128;-79
2022/03/26 03:35:33;;;;;;;82.25;34.15;;;;;;;;;;5009023;28;20045;-79
2022/03/26 03:38:00;;;;;;;85.43;34.60;;;;;;;;;;5009365;28;20051;-79
2022/03/26 03:40:26;;;;;;;85.85;33.78;;;;;;;;;;5009179;28;20994;-79
2022/03/26 03:42:54;;;;;;;77.70;33.28;;;;;;;;;;5009534;28;20133;-79
2022/03/26 03:45:21;;;;;;;82.00;35.75;;;;;;;;;;5009005;28;20088;-78
2022/03/26 03:47:47;;;;;;;77.90;34.10;;;;;;;;;;4993255;28;20041;-79
2022/03/26 03:50:13;;;;;;;79.60;33.38;;;;;;;;;;5009208;28;20041;-79
2022/03/26 03:52:39;;;;;;;94.60;37.28;;;;;;;;;;5019073;28;20149;-78
2022/03/26 03:55:06;;;;;;;96.15;37.45;;;;;;;;;;5009083;28;20077;-75
2022/03/26 03:57:32;;;;;;;89.60;37.03;;;;;;;;;;5008529;28;20045;-79
2022/03/26 03:59:58;;;;;;;72.22;31.38;;;;;;;;;;5009222;28;20094;-79
2022/03/26 04:02:24;;;;;;;91.38;37.30;;;;;;;;;;5008919;28;20133;-79
2022/03/26 04:04:50;;;;;;;93.32;37.83;;;;;;;;;;5009252;28;20042;-79
2022/03/26 04:07:16;;;;;;;82.38;33.47;;;;;;;;;;5008892;28;20029;-75
2022/03/26 04:09:42;;;;;;;81.93;32.78;;;;;;;;;;5009063;28;20494;-74
2022/03/26 04:12:09;;;;;;;95.28;38.22;;;;;;;;;;5008698;28;20053;-79
2022/03/26 04:14:35;;;;;;;107.97;41.28;;;;;;;;;;5008386;28;20046;-79
2022/03/26 04:17:02;;;;;;;79.05;33.38;;;;;;;;;;5008901;28;20049;-74
2022/03/26 04:19:28;;;;;;;81.70;33.25;;;;;;;;;;5008758;28;20490;-75
2022/03/26 04:21:56;;;;;;;71.65;30.65;;;;;;;;;;5008976;28;20061;-74
2022/03/26 04:24:22;;;;;;;75.32;32.35;;;;;;;;;;5026021;28;20386;-74
2022/03/26 04:26:48;;;;;;;86.43;36.50;;;;;;;;;;5008761;28;20044;-74
2022/03/26 04:29:14;;;;;;;97.10;36.13;;;;;;;;;;5008961;28;20098;-79
2022/03/26 04:31:40;;;;;;;109.70;42.20;;;;;;;;;;5008237;28;20056;-74
2022/03/26 04:34:06;;;;;;;107.90;41.95;;;;;;;;;;5008607;28;20034;-75
2022/03/26 04:36:33;;;;;;;112.82;41.67;;;;;;;;;;5008282;28;20049;-74
2022/03/26 04:38:59;;;;;;;103.38;40.15;;;;;;;;;;4993151;28;20510;-79
2022/03/26 04:41:27;;;;;;;98.68;38.35;;;;;;;;;;5008817;28;20048;-79
2022/03/26 04:43:53;;;;;;;109.80;42.35;;;;;;;;;;5009179;28;20450;-79
2022/03/26 04:46:19;;;;;;;100.75;38.45;;;;;;;;;;5008174;28;20034;-74
2022/03/26 04:48:48;;;;;;;107.95;41.88;;;;;;;;;;5008557;28;20067;-74
2022/03/26 04:51:14;;;;;;;97.35;38.13;;;;;;;;;;5017157;28;20050;-74
2022/03/26 04:53:40;;;;;;;100.78;39.85;;;;;;;;;;5025725;28;20033;-74
2022/03/26 04:56:06;;;;;;;86.07;35.40;;;;;;;;;;5026513;28;20069;-74
2022/03/26 04:58:32;;;;;;;104.65;41.00;;;;;;;;;;5008118;28;20087;-74
2022/03/26 05:01:00;;;;;;;104.15;40.03;;;;;;;;;;5004828;28;20050;-74
2022/03/26 05:03:26;;;;;;;110.25;41.30;;;;;;;;;;5005138;28;20046;-74
2022/03/26 05:05:52;;;;;;;94.85;38.20;;;;;;;;;;5008290;28;20048;-74
2022/03/26 05:08:18;;;;;;;80.85;34.20;;;;;;;;;;5011199;28;20052;-75
2022/03/26 05:10:45;;;;;;;75.60;32.67;;;;;;;;;;5011409;28;20049;-74
2022/03/26 05:13:11;;;;;;;97.38;38.78;;;;;;;;;;5011507;28;20057;-74
2022/03/26 05:15:38;;;;;;;99.65;38.00;;;;;;;;;;5011563;28;20495;-74
2022/03/26 05:18:04;;;;;;;101.53;38.78;;;;;;;;;;5011298;28;20537;-75
2022/03/26 05:20:30;;;;;;;101.15;40.63;;;;;;;;;;5010700;28;20042;-75
2022/03/26 05:22:56;;;;;;;109.63;40.85;;;;;;;;;;4994960;28;20505;-75
2022/03/26 05:25:22;;;;;;;98.90;39.30;;;;;;;;;;5011305;28;20049;-74
2022/03/26 05:27:49;;;;;;;102.13;39.55;;;;;;;;;;4994988;28;20041;-74
2022/03/26 05:30:16;;;;;;;92.32;37.03;;;;;;;;;;5011317;28;20037;-74
2022/03/26 05:32:42;;;;;;;80.88;31.67;;;;;;;;;;5007617;28;20150;-75
2022/03/26 05:35:13;;;;;;;93.50;37.50;;;;;;;;;;5011269;28;20041;-75
2022/03/26 05:37:43;;;;;;;88.65;35.65;;;;;;;;;;5028900;28;20041;-75
2022/03/26 05:40:09;;;;;;;82.88;34.65;;;;;;;;;;4994906;28;20082;-75
2022/03/26 05:42:36;;;;;;;102.00;38.40;;;;;;;;;;5011179;28;20049;-75
2022/03/26 05:45:07;;;;;;;104.68;39.33;;;;;;;;;;5029018;28;20041;-75
2022/03/26 05:47:33;;;;;;;92.55;35.95;;;;;;;;;;5010997;28;20053;-75
2022/03/26 05:50:00;;;;;;;117.60;42.60;;;;;;;;;;5010834;28;20123;-74
2022/03/26 05:52:26;;;;;;;114.30;43.70;;;;;;;;;;5021574;28;20053;-75
2022/03/26 05:54:52;;;;;;;117.97;43.72;;;;;;;;;;5028774;28;20106;-75
2022/03/26 05:57:21;;;;;;;113.30;43.17;;;;;;;;;;5011025;28;20616;-75
2022/03/26 05:59:48;;;;;;;104.57;41.13;;;;;;;;;;5008474;28;20120;-75
2022/03/26 06:02:14;;;;;;;101.20;41.38;;;;;;;;;;5028465;28;20049;-75
2022/03/26 06:04:41;;;;;;;93.80;38.92;;;;;;;;;;5027927;28;20053;-76
2022/03/26 06:07:07;;;;;;;95.47;38.92;;;;;;;;;;5010519;28;20029;-73
2022/03/26 06:09:34;;;;;;;86.05;36.60;;;;;;;;;;5010446;28;20072;-73
2022/03/26 06:12:00;;;;;;;103.82;43.72;;;;;;;;;;4994712;28;20045;-73
2022/03/26 06:14:26;;;;;;;95.65;41.40;;;;;;;;;;5010160;28;20052;-73
2022/03/26 06:16:52;;;;;;;96.93;41.08;;;;;;;;;;4993709;28;20120;-77
2022/03/26 06:19:18;;;;;;;93.15;38.75;;;;;;;;;;5009747;28;20038;-73
2022/03/26 06:21:44;;;;;;;96.05;41.20;;;;;;;;;;5010654;28;20106;-77
2022/03/26 06:24:10;;;;;;;88.47;40.67;;;;;;;;;;5010527;28;20048;-78
2022/03/26 06:26:39;;;;;;;97.95;44.15;;;;;;;;;;5028319;28;20033;-78
2022/03/26 06:29:05;;;;;;;94.22;42.88;;;;;;;;;;5010664;28;20128;-79
2022/03/26 06:31:31;;;;;;;81.15;40.33;;;;;;;;;;5010073;28;20045;-79
2022/03/26 06:33:58;;;;;;;93.18;43.42;;;;;;;;;;5010676;28;20038;-79
2022/03/26 06:36:26;;;;;;;89.68;44.25;;;;;;;;;;5028149;28;20046;-79
2022/03/26 06:38:52;;;;;;;101.68;47.65;;;;;;;;;;5028319;28;20041;-79
2022/03/26 06:41:18;;;;;;;93.53;44.65;;;;;;;;;;4993918;28;20090;-79
2022/03/26 06:43:45;;;;;;;100.22;49.92;;;;;;;;;;5027858;28;20029;-75
2022/03/26 06:46:12;;;;;;;99.10;49.97;;;;;;;;;;5009991;28;20084;-75
2022/03/26 06:48:39;;;;;;;100.57;50.97;;;;;;;;;;5009765;28;20049;-75
2022/03/26 06:51:07;;;;;;;95.90;49.05;;;;;;;;;;5009769;28;20391;-74
2022/03/26 06:53:34;;;;;;;101.78;52.90;;;;;;;;;;5009030;28;20049;-75
2022/03/26 06:56:00;;;;;;;97.13;51.47;;;;;;;;;;5027202;28;20065;-75
2022/03/26 06:58:26;;;;;;;96.95;51.70;;;;;;;;;;5009405;28;20128;-75
2022/03/26 07:00:52;;;;;;;98.05;52.55;;;;;;;;;;5009697;28;20097;-75
2022/03/26 07:03:18;;;;;;;96.65;53.03;;;;;;;;;;5009778;28;20037;-75
2022/03/26 07:05:44;;;;;;;108.55;57.42;;;;;;;;;;5027479;28;20086;-75
2022/03/26 07:08:11;;;;;;;108.32;60.55;;;;;;;;;;5027604;28;20128;-75
2022/03/26 07:10:37;;;;;;;101.60;55.90;;;;;;;;;;5009388;28;20161;-75
2022/03/26 07:13:03;;;;;;;106.00;58.33;;;;;;;;;;4993296;28;20107;-79
2022/03/26 07:15:31;;;;;;;100.38;58.88;;;;;;;;;;5009300;28;20087;-76
2022/03/26 07:17:58;;;;;;;99.63;57.70;;;;;;;;;;5010006;28;20075;-76
2022/03/26 07:20:24;;;;;;;95.07;54.95;;;;;;;;;;5008417;28;20049;-76
2022/03/26 07:22:50;;;;;;;95.43;55.20;;;;;;;;;;5009412;28;20038;-76
2022/03/26 07:25:17;;;;;;;94.00;54.47;;;;;;;;;;5009237;28;20045;-76
2022/03/26 07:27:43;;;;;;;92.38;53.50;;;;;;;;;;4993148;28;20114;-79
2022/03/26 07:30:10;;;;;;;91.07;50.97;;;;;;;;;;4988299;28;20526;-79
2022/03/26 07:32:36;;;;;;;85.97;52.15;;;;;;;;;;5009332;28;20060;-78
2022/03/26 07:35:02;;;;;;;84.00;51.35;;;;;;;;;;5009440;28;20048;-78
2022/03/26 07:37:28;;;;;;;82.40;48.53;;;;;;;;;;4992766;28;20102;-76
2022/03/26 07:39:54;;;;;;;79.43;48.95;;;;;;;;;;5008840;28;20037;-77
2022/03/26 07:42:21;;;;;;;79.50;48.47;;;;;;;;;;5008177;28;20137;-76
2022/03/26 07:44:47;;;;;;;77.00;49.03;;;;;;;;;;4993169;28;20436;-77
2022/03/26 07:47:13;;;;;;;73.40;47.42;;;;;;;;;;5026916;28;20483;-76
2022/03/26 07:49:39;;;;;;;72.45;44.63;;;;;;;;;;5026787;28;20064;-76
2022/03/26 07:52:05;;;;;;;76.40;45.50;;;;;;;;;;5026993;28;20037;-76
2022/03/26 07:54:31;;;;;;;71.35;44.50;;;;;;;;;;5008764;28;20094;-76
2022/03/26 07:56:57;;;;;;;68.25;42.35;;;;;;;;;;4993019;28;20044;-77
2022/03/26 07:59:24;;;;;;;72.13;43.65;;;;;;;;;;4992440;28;20398;-77
2022/03/26 08:01:50;;;;;;;68.07;40.40;;;;;;;;;;5026610;28;20057;-77
2022/03/26 08:04:16;;;;;;;61.72;39.05;;;;;;;;;;5008781;28;20495;-77
2022/03/26 08:06:42;;;;;;;61.33;37.05;;;;;;;;;;5008670;28;20351;-77
2022/03/26 08:09:08;;;;;;;55.38;33.08;;;;;;;;;;5008798;28;20037;-77
2022/03/26 08:11:34;;;;;;;53.33;33.05;;;;;;;;;;5008174;28;20678;-77
2022/03/26 08:14:00;;;;;;;55.75;34.53;;;;;;;;;;4992453;28;20045;-77
2022/03/26 08:16:26;;;;;;;58.50;35.13;;;;;;;;;;5008375;28;20045;-77
2022/03/26 08:18:52;;;;;;;52.83;30.75;;;;;;;;;;5026563;28;20038;-77
2022/03/26 08:21:20;;;;;;;62.03;34.67;;;;;;;;;;5008465;28;20042;-76
2022/03/26 08:23:46;;;;;;;54.92;31.95;;;;;;;;;;5008672;28;20045;-77
2022/03/26 08:26:29;;;;;;;54.25;32.08;;;;;;;;;;5008740;28;20069;-77
2022/03/26 08:28:56;;;;;;;53.90;32.78;;;;;;;;;;4992660;28;20045;-77
2022/03/26 08:31:23;;;;;;;51.67;31.33;;;;;;;;;;5026039;28;20122;-75
2022/03/26 08:33:49;;;;;;;52.72;30.25;;;;;;;;;;5008765;28;20094;-77
2022/03/26 08:36:16;;;;;;;51.65;30.67;;;;;;;;;;4992370;28;20061;-77
2022/03/26 08:38:44;;;;;;;50.22;31.25;;;;;;;;;;5008206;28;20657;-77
2022/03/26 08:41:11;;;;;;;49.95;29.25;;;;;;;;;;5009957;28;20128;-77
2022/03/26 08:43:37;;;;;;;47.80;29.30;;;;;;;;;;5011659;28;20086;-77
2022/03/26 08:46:04;;;;;;;46.08;29.70;;;;;;;;;;4979560;28;20128;-77
2022/03/26 08:48:31;;;;;;;51.88;29.55;;;;;;;;;;4995417;28;20061;-78
2022/03/26 08:50:57;;;;;;;49.70;30.35;;;;;;;;;;5029305;28;20037;-78
2022/03/26 08:53:23;;;;;;;51.25;29.33;;;;;;;;;;5029666;28;20038;-77
2022/03/26 08:55:51;;;;;;;45.58;28.23;;;;;;;;;;5012232;28;20037;-77
2022/03/26 08:58:17;;;;;;;46.40;28.50;;;;;;;;;;5012174;28;20046;-77
2022/03/26 09:00:47;;;;;;;45.65;28.05;;;;;;;;;;5029272;28;20044;-77
2022/03/26 09:03:14;;;;;;;46.05;29.25;;;;;;;;;;5027691;28;20045;-76
2022/03/26 09:05:40;;;;;;;42.13;29.10;;;;;;;;;;5011750;28;20053;-77
2022/03/26 09:08:06;;;;;;;42.88;27.88;;;;;;;;;;5029549;28;20124;-76
2022/03/26 09:10:32;;;;;;;49.00;29.50;;;;;;;;;;5029115;28;20061;-76
2022/03/26 09:12:58;;;;;;;45.22;28.92;;;;;;;;;;5011990;28;20414;-76
2022/03/26 09:15:24;;;;;;;46.10;28.95;;;;;;;;;;5021547;28;20077;-76
2022/03/26 09:17:51;;;;;;;46.45;28.52;;;;;;;;;;5011889;28;20049;-76
2022/03/26 09:20:17;;;;;;;43.00;27.92;;;;;;;;;;5029464;28;20055;-76
2022/03/26 09:22:43;;;;;;;45.33;28.13;;;;;;;;;;5011507;28;20494;-76
2022/03/26 09:25:10;;;;;;;42.47;27.42;;;;;;;;;;5029298;28;20064;-77
2022/03/26 09:27:36;;;;;;;46.17;27.38;;;;;;;;;;5011349;28;20034;-76
2022/03/26 09:30:02;;;;;;;44.65;28.65;;;;;;;;;;5011799;28;20048;-76
2022/03/26 09:32:28;;;;;;;46.03;29.13;;;;;;;;;;5011319;28;20078;-76
2022/03/26 09:34:55;;;;;;;42.60;28.77;;;;;;;;;;5029520;28;20041;-76
2022/03/26 09:37:21;;;;;;;46.88;28.67;;;;;;;;;;4995022;28;20073;-76
2022/03/26 09:39:47;;;;;;;45.35;29.90;;;;;;;;;;5029161;28;20401;-76
2022/03/26 09:42:14;;;;;;;44.65;28.65;;;;;;;;;;5011528;28;20082;-76
2022/03/26 09:44:40;;;;;;;47.47;28.08;;;;;;;;;;5011219;28;20094;-76
2022/03/26 09:47:10;;;;;;;39.20;25.63;;;;;;;;;;5029174;28;20098;-77
2022/03/26 09:49:40;;;;;;;42.00;27.10;;;;;;;;;;4994326;28;20042;-77
2022/03/26 09:52:06;;;;;;;43.95;25.10;;;;;;;;;;5027934;28;20444;-76
2022/03/26 09:54:33;;;;;;;39.22;25.02;;;;;;;;;;5010417;28;20056;-77
2022/03/26 09:57:00;;;;;;;26.48;17.77;;;;;;;;;;4994902;28;20490;-78
2022/03/26 09:59:26;;;;;;;37.72;22.75;;;;;;;;;;5028196;28;20498;-77
2022/03/26 10:01:52;;;;;;;32.10;19.63;;;;;;;;;;5011199;28;20041;-76
2022/03/26 10:04:20;;;;;;;27.00;18.10;;;;;;;;;;5010771;28;20048;-76
2022/03/26 10:06:53;;;;;;;27.30;19.40;;;;;;;;;;5010863;28;20038;-77
2022/03/26 10:09:39;;;;;;;29.67;17.38;;;;;;;;;;5009118;28;20041;-76
2022/03/26 10:12:07;;;;;;;26.73;18.00;;;;;;;;;;4993991;28;20096;-76
2022/03/26 10:14:40;;;;;;;24.92;17.13;;;;;;;;;;5028332;28;20042;-77
2022/03/26 10:17:14;;;;;;;26.35;18.95;;;;;;;;;;5020971;28;20086;-76
2022/03/26 10:19:46;;;;;;;28.85;20.70;;;;;;;;;;5010614;28;20498;-77
2022/03/26 10:22:13;;;;;;;30.95;21.20;;;;;;;;;;5010750;28;20042;-77
2022/03/26 10:24:43;;;;;;;28.88;19.85;;;;;;;;;;5009939;28;20041;-77
2022/03/26 10:27:12;;;;;;;29.98;19.60;;;;;;;;;;4994090;28;20069;-76
2022/03/26 10:29:55;;;;;;;25.98;18.65;;;;;;;;;;5010525;28;20394;-76
2022/03/26 10:32:41;;;;;;;27.73;19.63;;;;;;;;;;5011063;28;20049;-76
2022/03/26 10:35:20;;;;;;;26.75;20.13;;;;;;;;;;5010508;28;20053;-76
2022/03/26 10:37:47;;;;;;;32.03;21.80;;;;;;;;;;5010376;28;20554;-77
2022/03/26 10:40:21;;;;;;;30.85;21.90;;;;;;;;;;5010252;28;20098;-76
2022/03/26 10:42:54;;;;;;;30.55;21.05;;;;;;;;;;4992426;28;20405;-76
2022/03/26 10:45:21;;;;;;;32.17;23.38;;;;;;;;;;5010523;28;20067;-76
2022/03/26 10:47:48;;;;;;;30.75;22.23;;;;;;;;;;5010227;28;20045;-76
2022/03/26 10:50:14;;;;;;;29.63;21.98;;;;;;;;;;5010509;28;20132;-77
2022/03/26 10:52:42;;;;;;;31.50;22.52;;;;;;;;;;5002022;28;20566;-76
2022/03/26 10:55:18;;;;;;;30.13;21.58;;;;;;;;;;4993565;28;20056;-77
2022/03/26 10:57:45;;;;;;;34.60;21.50;;;;;;;;;;5009876;28;20084;-76
2022/03/26 11:00:13;;;;;;;29.73;21.00;;;;;;;;;;5009945;28;20038;-76
2022/03/26 11:02:39;;;;;;;30.20;21.40;;;;;;;;;;5009381;28;20057;-77
2022/03/26 11:05:06;;;;;;;27.58;20.70;;;;;;;;;;5009599;28;20125;-77
2022/03/26 11:07:33;;;;;;;24.88;18.17;;;;;;;;;;5009877;28;20117;-78
2022/03/26 11:09:59;;;;;;;30.83;19.52;;;;;;;;;;5020174;28;20116;-76
2022/03/26 11:12:26;;;;;;;22.70;17.42;;;;;;;;;;5027830;28;20344;-76
2022/03/26 11:14:54;;;;;;;22.05;16.65;;;;;;;;;;5027992;28;20131;-76
2022/03/26 11:17:46;;;;;;;21.58;15.15;;;;;;;;;;5009897;28;20048;-76
2022/03/26 11:20:33;;;;;;;20.40;16.17;;;;;;;;;;5010439;28;20441;-77
2022/03/26 11:23:05;;;;;;;22.55;16.38;;;;;;;;;;5009656;28;20038;-77
2022/03/26 11:25:39;;;;;;;18.38;14.75;;;;;;;;;;5008856;28;20513;-77
2022/03/26 11:28:20;;;;;;;20.57;15.80;;;;;;;;;;4991256;28;20136;-77
2022/03/26 11:31:08;;;;;;;19.67;15.98;;;;;;;;;;5027037;28;20715;-77
2022/03/26 11:33:38;;;;;;;20.55;16.52;;;;;;;;;;5009445;28;20048;-78
2022/03/26 11:36:08;;;;;;;24.67;16.90;;;;;;;;;;5009732;28;20054;-76
2022/03/26 11:38:35;;;;;;;21.77;15.85;;;;;;;;;;5009459;28;20490;-76
2022/03/26 11:41:03;;;;;;;19.38;15.20;;;;;;;;;;5009733;28;20533;-76
2022/03/26 11:43:44;;;;;;;17.95;13.02;;;;;;;;;;5027225;28;20060;-76
2022/03/26 11:51:52;;;;;;;14.80;12.75;;;;;;;;;;5008567;28;20260;-75
2022/03/26 11:54:19;;;;;;;15.77;11.65;;;;;;;;;;5009091;28;20037;-77
2022/03/26 11:56:47;;;;;;;20.15;14.65;;;;;;;;;;5008588;28;20137;-76
2022/03/26 11:59:16;;;;;;;17.35;12.15;;;;;;;;;;5026917;28;20045;-77
2022/03/26 12:01:46;;;;;;;17.23;12.52;;;;;;;;;;4992153;28;20053;-77
2022/03/26 12:04:13;;;;;;;16.92;12.95;;;;;;;;;;5026697;28;20044;-76
2022/03/26 12:06:53;;;;;;;18.88;13.05;;;;;;;;;;5008954;28;20494;-76
2022/03/26 12:09:32;;;;;;;19.63;12.25;;;;;;;;;;4992777;28;20034;-77
2022/03/26 12:12:10;;;;;;;13.35;10.45;;;;;;;;;;5026586;28;20049;-76
2022/03/26 12:14:56;;;;;;;11.73;9.35;;;;;;;;;;4990576;28;20037;-76
2022/03/26 12:17:40;;;;;;;13.25;9.63;;;;;;;;;;5030103;28;20518;-75
2022/03/26 12:20:19;;;;;;;13.20;9.30;;;;;;;;;;5012867;28;20125;-76
2022/03/26 12:22:45;;;;;;;13.23;10.65;;;;;;;;;;5012308;28;20284;-77
2022/03/26 12:25:16;;;;;;;13.40;9.93;;;;;;;;;;5012671;28;20044;-76
2022/03/26 12:27:44;;;;;;;13.73;9.90;;;;;;;;;;5012398;28;20120;-75
2022/03/26 12:30:11;;;;;;;11.43;8.18;;;;;;;;;;5030918;28;20049;-74
2022/03/26 12:32:38;;;;;;;13.52;8.63;;;;;;;;;;5012387;28;20056;-75
2022/03/26 12:35:05;;;;;;;12.13;8.32;;;;;;;;;;5013128;28;20529;-75
2022/03/26 12:37:32;;;;;;;11.07;8.38;;;;;;;;;;5012153;28;20046;-75
2022/03/26 12:39:58;;;;;;;11.00;7.90;;;;;;;;;;5030620;28;20041;-75
2022/03/26 12:42:25;;;;;;;10.68;6.97;;;;;;;;;;5030363;28;20045;-75
2022/03/26 12:44:52;;;;;;;11.35;7.32;;;;;;;;;;4996435;28;20541;-75
2022/03/26 12:47:19;;;;;;;10.57;7.50;;;;;;;;;;4995991;28;20029;-75
2022/03/26 12:49:50;;;;;;;11.30;7.40;;;;;;;;;;4995851;28;20520;-75
2022/03/26 12:52:20;;;;;;;11.82;7.35;;;;;;;;;;5030133;28;20579;-75
2022/03/26 12:54:56;;;;;;;10.15;6.88;;;;;;;;;;4995388;28;20045;-76
2022/03/26 12:57:22;;;;;;;12.85;7.25;;;;;;;;;;5029732;28;20040;-75
2022/03/26 12:59:55;;;;;;;9.80;7.20;;;;;;;;;;5011970;28;20038;-77
2022/03/26 13:02:21;;;;;;;10.32;7.60;;;;;;;;;;5011846;28;20042;-76
2022/03/26 13:04:54;;;;;;;10.60;7.15;;;;;;;;;;4995644;28;20041;-76
2022/03/26 13:07:21;;;;;;;11.80;7.15;;;;;;;;;;5029626;28;20037;-76
2022/03/26 13:09:47;;;;;;;10.98;7.30;;;;;;;;;;5011532;28;20045;-76
2022/03/26 13:12:23;;;;;;;9.30;6.10;;;;;;;;;;5011510;28;20049;-77
2022/03/26 13:14:49;;;;;;;9.25;6.13;;;;;;;;;;5011392;28;20063;-75
2022/03/26 13:17:15;;;;;;;9.63;6.20;;;;;;;;;;5011843;28;20037;-76
2022/03/26 13:19:45;;;;;;;10.27;6.50;;;;;;;;;;5011208;28;20044;-76
2022/03/26 13:22:14;;;;;;;11.35;6.40;;;;;;;;;;5011671;28;20094;-76
2022/03/26 13:24:54;;;;;;;17.75;6.43;;;;;;;;;;5011029;28;20046;-76
2022/03/26 13:27:21;;;;;;;11.15;6.65;;;;;;;;;;5011088;28;20045;-76
2022/03/26 13:29:47;;;;;;;10.40;6.35;;;;;;;;;;5010765;28;20030;-76
2022/03/26 13:32:13;;;;;;;8.98;6.35;;;;;;;;;;5011550;28;20709;-76
2022/03/26 13:34:46;;;;;;;9.38;6.32;;;;;;;;;;5028497;28;20441;-76
2022/03/26 13:37:20;;;;;;;10.25;6.22;;;;;;;;;;5029221;28;20063;-76
2022/03/26 13:39:47;;;;;;;8.80;6.15;;;;;;;;;;5010807;28;20037;-76
2022/03/26 13:42:20;;;;;;;10.20;6.30;;;;;;;;;;5011258;28;20055;-76
2022/03/26 13:44:47;;;;;;;10.27;6.60;;;;;;;;;;5010947;28;20080;-77
2022/03/26 13:47:21;;;;;;;8.85;6.32;;;;;;;;;;5029005;28;20502;-76
2022/03/26 13:49:48;;;;;;;10.48;6.72;;;;;;;;;;5010866;28;20042;-77
2022/03/26 13:52:27;;;;;;;8.82;6.00;;;;;;;;;;5028763;28;20043;-76
2022/03/26 13:54:54;;;;;;;10.60;6.10;;;;;;;;;;4994616;28;20471;-77
2022/03/26 13:57:34;;;;;;;9.68;6.15;;;;;;;;;;5010723;28;20030;-76
2022/03/26 14:00:18;;;;;;;8.75;5.63;;;;;;;;;;5028739;28;20387;-75
2022/03/26 14:02:44;;;;;;;8.65;5.18;;;;;;;;;;5028536;28;20043;-76
2022/03/26 14:05:31;;;;;;;7.15;5.40;;;;;;;;;;5028549;28;20108;-76
2022/03/26 14:08:04;;;;;;;8.82;5.18;;;;;;;;;;5010756;28;20394;-76
2022/03/26 14:10:32;;;;;;;9.55;5.70;;;;;;;;;;5025921;28;20069;-75
2022/03/26 14:12:59;;;;;;;8.05;5.55;;;;;;;;;;5010612;28;20085;-76
2022/03/26 14:15:27;;;;;;;7.50;5.38;;;;;;;;;;4994945;28;20041;-77
2022/03/26 14:17:53;;;;;;;8.55;5.47;;;;;;;;;;5010855;28;20037;-75
2022/03/26 14:20:19;;;;;;;6.60;4.45;;;;;;;;;;5028052;28;20496;-76
2022/03/26 14:22:46;;;;;;;9.35;5.30;;;;;;;;;;4993698;28;20133;-76
2022/03/26 14:25:12;;;;;;;6.60;4.20;;;;;;;;;;5010878;28;20558;-77
2022/03/26 14:27:38;;;;;;;7.45;4.32;;;;;;;;;;5027979;28;20042;-78